Time;durP1;ratioP1;P1;durP2;ratioP2;P2;SDS_P1;SDS_P2;PMS_P1;PMS_P2;Temp;Humidity;BMP_temperature;BMP_pressure;BME280_temperature;BME280_humidity;BME280_pressure;Samples;Min_cycle;Max_cycle;Signal;HPM_P1;HPM_P2
2021/10/06 00:02:03;;;;;;;2.20;1.20;;;;;;;;;;4995720;28;20221;-75
2021/10/06 00:05:07;;;;;;;1.90;1.30;;;;;;;;;;4996013;28;20186;-75
2021/10/06 00:08:13;;;;;;;1.93;0.93;;;;;;;;;;4995782;28;20182;-75
2021/10/06 00:11:17;;;;;;;1.90;1.03;;;;;;;;;;4995462;28;20230;-75
2021/10/06 00:14:22;;;;;;;1.33;1.13;;;;;;;;;;4972755;28;20626;-75
2021/10/06 00:17:26;;;;;;;2.90;1.20;;;;;;;;;;4984076;28;20186;-75
2021/10/06 00:20:30;;;;;;;1.80;1.20;;;;;;;;;;4995668;28;20629;-75
2021/10/06 00:23:34;;;;;;;3.87;1.10;;;;;;;;;;4995366;28;20186;-75
2021/10/06 00:26:38;;;;;;;2.13;1.10;;;;;;;;;;4995597;28;20186;-75
2021/10/06 00:29:42;;;;;;;3.20;0.90;;;;;;;;;;4983616;28;20182;-75
2021/10/06 00:32:46;;;;;;;1.73;0.97;;;;;;;;;;4995180;28;20201;-75
2021/10/06 00:35:51;;;;;;;3.20;1.07;;;;;;;;;;4983234;28;20178;-75
2021/10/06 00:38:55;;;;;;;1.37;0.70;;;;;;;;;;4995138;28;20182;-75
2021/10/06 00:41:59;;;;;;;1.87;1.00;;;;;;;;;;4994974;28;20217;-75
2021/10/06 00:45:03;;;;;;;3.17;1.07;;;;;;;;;;4983054;28;20182;-75
2021/10/06 00:48:08;;;;;;;2.83;0.90;;;;;;;;;;4983272;28;20178;-75
2021/10/06 00:51:13;;;;;;;1.13;0.80;;;;;;;;;;4982549;28;20566;-75
2021/10/06 00:54:18;;;;;;;2.13;1.10;;;;;;;;;;4994860;28;20198;-75
2021/10/06 00:57:22;;;;;;;1.23;0.70;;;;;;;;;;4983139;28;20186;-75
2021/10/06 01:00:26;;;;;;;2.93;0.93;;;;;;;;;;4994869;28;20186;-75
2021/10/06 01:03:30;;;;;;;2.40;1.10;;;;;;;;;;4983266;28;20511;-75
2021/10/06 01:06:34;;;;;;;1.40;0.80;;;;;;;;;;4994605;28;20186;-75
2021/10/06 01:09:38;;;;;;;1.73;0.80;;;;;;;;;;4994545;28;20632;-74
2021/10/06 01:12:43;;;;;;;1.73;0.90;;;;;;;;;;4994339;28;20573;-75
2021/10/06 01:15:47;;;;;;;2.17;1.00;;;;;;;;;;4994733;28;20518;-75
2021/10/06 01:18:51;;;;;;;1.17;0.90;;;;;;;;;;4982351;28;20570;-75
2021/10/06 01:21:57;;;;;;;4.10;1.00;;;;;;;;;;4982331;28;20218;-75
2021/10/06 01:25:03;;;;;;;6.83;0.93;;;;;;;;;;4994265;28;20202;-76
2021/10/06 01:28:07;;;;;;;1.90;0.73;;;;;;;;;;4994551;28;20522;-75
2021/10/06 01:31:12;;;;;;;2.10;1.13;;;;;;;;;;4982125;28;20578;-74
2021/10/06 01:34:18;;;;;;;3.10;0.77;;;;;;;;;;4994455;28;20265;-75
2021/10/06 01:37:22;;;;;;;0.90;0.80;;;;;;;;;;4982217;28;20645;-75
2021/10/06 01:40:27;;;;;;;6.13;1.00;;;;;;;;;;4982387;28;20186;-75
2021/10/06 01:43:31;;;;;;;2.30;1.10;;;;;;;;;;4982480;28;20630;-75
2021/10/06 01:46:35;;;;;;;2.13;1.00;;;;;;;;;;4982235;28;20186;-75
2021/10/06 01:49:39;;;;;;;2.40;0.73;;;;;;;;;;4994332;28;20182;-75
2021/10/06 01:52:43;;;;;;;4.63;1.00;;;;;;;;;;4993790;28;20225;-75
2021/10/06 01:55:47;;;;;;;2.90;0.90;;;;;;;;;;4982308;28;20522;-75
2021/10/06 01:58:52;;;;;;;3.53;1.13;;;;;;;;;;4982303;28;20179;-75
2021/10/06 02:01:56;;;;;;;3.40;1.10;;;;;;;;;;4993942;28;20218;-75
2021/10/06 02:05:00;;;;;;;2.97;1.00;;;;;;;;;;4997974;28;20201;-75
2021/10/06 02:08:05;;;;;;;3.27;0.80;;;;;;;;;;4985881;28;20193;-75
2021/10/06 02:11:11;;;;;;;2.07;0.80;;;;;;;;;;4997695;28;20712;-75
2021/10/06 02:14:15;;;;;;;3.83;0.90;;;;;;;;;;4998075;28;20182;-75
2021/10/06 02:17:19;;;;;;;3.50;1.73;;;;;;;;;;4997864;28;20186;-75
2021/10/06 02:20:23;;;;;;;5.17;1.07;;;;;;;;;;4997869;28;20190;-75
2021/10/06 02:23:27;;;;;;;1.30;0.80;;;;;;;;;;4997692;28;20182;-74
2021/10/06 02:26:32;;;;;;;2.83;0.90;;;;;;;;;;4985631;28;20653;-75
2021/10/06 02:29:36;;;;;;;2.77;1.03;;;;;;;;;;4998771;28;20186;-74
2021/10/06 02:32:40;;;;;;;2.07;0.90;;;;;;;;;;4998126;28;20230;-74
2021/10/06 02:35:44;;;;;;;2.27;1.17;;;;;;;;;;4997605;28;20664;-75
2021/10/06 02:38:48;;;;;;;4.73;1.50;;;;;;;;;;4997409;28;20186;-75
2021/10/06 02:41:53;;;;;;;3.23;1.07;;;;;;;;;;4998032;28;20538;-75
2021/10/06 02:44:57;;;;;;;3.07;1.00;;;;;;;;;;4997494;28;20178;-75
2021/10/06 02:48:01;;;;;;;2.40;1.30;;;;;;;;;;4997236;28;20206;-75
2021/10/06 02:51:05;;;;;;;3.40;1.00;;;;;;;;;;4997073;28;20226;-75
2021/10/06 02:54:09;;;;;;;2.93;1.20;;;;;;;;;;4997125;28;20522;-74
2021/10/06 02:57:13;;;;;;;2.80;1.23;;;;;;;;;;4997332;28;20190;-75
2021/10/06 03:00:17;;;;;;;2.57;0.90;;;;;;;;;;4997238;28;20621;-76
2021/10/06 03:03:21;;;;;;;1.17;0.90;;;;;;;;;;4996914;28;20174;-76
2021/10/06 03:06:26;;;;;;;3.47;1.00;;;;;;;;;;4997150;28;20178;-76
2021/10/06 03:09:30;;;;;;;2.50;1.03;;;;;;;;;;4985145;28;20182;-75
2021/10/06 03:12:34;;;;;;;2.93;1.10;;;;;;;;;;5004031;22;20228;-72
2021/10/06 03:15:38;;;;;;;6.80;1.40;;;;;;;;;;5015576;28;20189;-71
2021/10/06 03:18:42;;;;;;;2.87;0.80;;;;;;;;;;5016531;28;20181;-72
2021/10/06 03:21:46;;;;;;;2.33;0.80;;;;;;;;;;5016356;28;20561;-72
2021/10/06 03:24:50;;;;;;;2.17;0.80;;;;;;;;;;5004356;28;20174;-72
2021/10/06 03:27:55;;;;;;;2.90;0.83;;;;;;;;;;5016062;28;20663;-72
2021/10/06 03:30:59;;;;;;;2.13;0.90;;;;;;;;;;5015983;28;20703;-72
2021/10/06 03:34:03;;;;;;;4.50;1.10;;;;;;;;;;5015945;28;20165;-72
2021/10/06 03:37:07;;;;;;;6.63;1.00;;;;;;;;;;5015845;28;20182;-72
2021/10/06 03:40:11;;;;;;;1.83;0.93;;;;;;;;;;5016128;28;20181;-72
2021/10/06 03:43:16;;;;;;;2.03;0.90;;;;;;;;;;5003960;28;20177;-72
2021/10/06 03:46:19;;;;;;;3.07;1.00;;;;;;;;;;5015776;28;20632;-72
2021/10/06 03:49:23;;;;;;;2.63;0.93;;;;;;;;;;5003627;28;20182;-72
2021/10/06 03:52:28;;;;;;;3.00;1.20;;;;;;;;;;5003479;28;20225;-72
2021/10/06 03:55:32;;;;;;;2.30;1.20;;;;;;;;;;5015578;28;20185;-72
2021/10/06 03:58:36;;;;;;;1.20;0.90;;;;;;;;;;5015788;28;20649;-72
2021/10/06 04:01:40;;;;;;;1.50;0.90;;;;;;;;;;5015386;28;20217;-72
2021/10/06 04:04:44;;;;;;;2.10;1.00;;;;;;;;;;5015934;28;20181;-72
2021/10/06 04:07:49;;;;;;;1.73;1.00;;;;;;;;;;5015593;28;20525;-72
2021/10/06 04:10:53;;;;;;;3.10;0.93;;;;;;;;;;5015619;28;20221;-72
2021/10/06 04:13:57;;;;;;;2.40;1.03;;;;;;;;;;5002717;28;20695;-71
2021/10/06 04:17:01;;;;;;;5.73;1.00;;;;;;;;;;5015136;28;20182;-72
2021/10/06 04:20:05;;;;;;;1.50;0.87;;;;;;;;;;5015120;28;20185;-72
2021/10/06 04:23:09;;;;;;;2.13;1.10;;;;;;;;;;5002998;28;20173;-72
2021/10/06 04:26:13;;;;;;;1.53;0.93;;;;;;;;;;5014195;28;20207;-72
2021/10/06 04:29:18;;;;;;;2.53;1.00;;;;;;;;;;5015158;28;20632;-72
2021/10/06 04:32:22;;;;;;;1.77;0.97;;;;;;;;;;5014559;28;20217;-72
2021/10/06 04:35:26;;;;;;;3.33;1.10;;;;;;;;;;5015079;28;20189;-72
2021/10/06 04:38:30;;;;;;;2.53;1.17;;;;;;;;;;5014841;28;20189;-72
2021/10/06 04:41:35;;;;;;;2.07;1.00;;;;;;;;;;5014896;28;20221;-72
2021/10/06 04:44:39;;;;;;;2.80;0.90;;;;;;;;;;5014847;28;20174;-72
2021/10/06 04:47:43;;;;;;;4.17;1.37;;;;;;;;;;5002802;28;20177;-72
2021/10/06 04:50:47;;;;;;;3.07;1.10;;;;;;;;;;5014727;28;20221;-72
2021/10/06 04:53:51;;;;;;;2.60;1.17;;;;;;;;;;5014235;28;20201;-72
2021/10/06 04:56:55;;;;;;;5.50;1.13;;;;;;;;;;5014706;28;20189;-72
2021/10/06 04:59:59;;;;;;;1.57;0.90;;;;;;;;;;5014640;28;20181;-72
2021/10/06 05:03:08;;;;;;;2.40;0.80;;;;;;;;;;5014308;28;20177;-72
2021/10/06 05:06:12;;;;;;;2.20;0.90;;;;;;;;;;5002120;28;20197;-72
2021/10/06 05:09:17;;;;;;;2.27;1.10;;;;;;;;;;5014542;28;20182;-72
2021/10/06 05:12:23;;;;;;;5.60;1.23;;;;;;;;;;5013872;28;20225;-72
2021/10/06 05:15:28;;;;;;;2.30;1.10;;;;;;;;;;5014401;28;20675;-72
2021/10/06 05:18:32;;;;;;;3.77;1.10;;;;;;;;;;5014350;28;20181;-72
2021/10/06 05:21:36;;;;;;;3.33;1.10;;;;;;;;;;5014467;28;20221;-72
2021/10/06 05:24:40;;;;;;;3.43;1.00;;;;;;;;;;5001862;28;20193;-72
2021/10/06 05:27:44;;;;;;;4.50;1.40;;;;;;;;;;5013891;28;20201;-72
2021/10/06 05:30:48;;;;;;;3.37;1.20;;;;;;;;;;5001816;28;20225;-72
2021/10/06 05:33:52;;;;;;;3.33;1.00;;;;;;;;;;5013594;28;20201;-72
2021/10/06 05:36:57;;;;;;;4.57;1.20;;;;;;;;;;5001354;28;20190;-72
2021/10/06 05:40:03;;;;;;;3.90;2.73;;;;;;;;;;5013577;28;20513;-72
2021/10/06 05:43:12;;;;;;;5.03;4.57;;;;;;;;;;5014009;28;20178;-72
2021/10/06 05:46:16;;;;;;;2.90;2.03;;;;;;;;;;5001546;28;20668;-72
2021/10/06 05:49:22;;;;;;;4.17;1.33;;;;;;;;;;5012927;28;21280;-72
2021/10/06 05:52:26;;;;;;;1.77;1.40;;;;;;;;;;5013611;28;20565;-72
2021/10/06 05:55:31;;;;;;;2.03;1.47;;;;;;;;;;5013619;28;20185;-72
2021/10/06 05:58:35;;;;;;;4.30;1.60;;;;;;;;;;5013820;28;20185;-72
2021/10/06 06:01:39;;;;;;;4.83;1.77;;;;;;;;;;5013417;28;20699;-72
2021/10/06 06:04:43;;;;;;;3.03;1.80;;;;;;;;;;5013772;28;20174;-72
2021/10/06 06:07:47;;;;;;;5.83;1.80;;;;;;;;;;5001568;28;20178;-72
2021/10/06 06:10:51;;;;;;;3.43;1.60;;;;;;;;;;5013640;28;20213;-72
2021/10/06 06:13:55;;;;;;;4.43;1.63;;;;;;;;;;5013058;28;20221;-71
2021/10/06 06:16:59;;;;;;;4.87;1.97;;;;;;;;;;5013391;28;20181;-72
2021/10/06 06:20:13;;;;;;;4.30;1.70;;;;;;;;;;5013369;28;20177;-72
2021/10/06 06:23:17;;;;;;;3.90;1.40;;;;;;;;;;5013449;28;20625;-72
2021/10/06 06:26:21;;;;;;;1.50;1.10;;;;;;;;;;5013570;28;20185;-72
2021/10/06 06:29:25;;;;;;;3.00;1.60;;;;;;;;;;5013577;28;20181;-71
2021/10/06 06:32:29;;;;;;;1.47;1.20;;;;;;;;;;5013105;28;20557;-72
2021/10/06 06:35:33;;;;;;;6.93;1.20;;;;;;;;;;5013522;28;20185;-72
2021/10/06 06:38:38;;;;;;;2.53;1.37;;;;;;;;;;5001148;28;20522;-72
2021/10/06 06:41:42;;;;;;;2.20;1.30;;;;;;;;;;4990367;28;20213;-72
2021/10/06 06:44:46;;;;;;;3.53;1.33;;;;;;;;;;5013455;28;20170;-72
2021/10/06 06:47:50;;;;;;;2.30;1.83;;;;;;;;;;5013227;28;20181;-72
2021/10/06 06:50:54;;;;;;;2.27;1.53;;;;;;;;;;5016623;28;20217;-72
2021/10/06 06:53:58;;;;;;;3.40;1.20;;;;;;;;;;5016982;28;20225;-72
2021/10/06 06:57:02;;;;;;;1.93;1.10;;;;;;;;;;5016949;28;20185;-72
2021/10/06 07:00:06;;;;;;;2.90;1.50;;;;;;;;;;5016652;28;20636;-72
2021/10/06 07:03:12;;;;;;;3.37;1.30;;;;;;;;;;5016565;28;20178;-72
2021/10/06 07:06:16;;;;;;;1.83;1.10;;;;;;;;;;5016526;28;20178;-72
2021/10/06 07:09:24;;;;;;;3.23;1.13;;;;;;;;;;5004350;28;20205;-72
2021/10/06 07:12:28;;;;;;;3.53;1.00;;;;;;;;;;5004087;28;20225;-72
2021/10/06 07:15:33;;;;;;;4.80;1.57;;;;;;;;;;5016549;28;20186;-72
2021/10/06 07:18:37;;;;;;;5.00;2.97;;;;;;;;;;5016509;28;20197;-72
2021/10/06 07:21:44;;;;;;;4.40;1.60;;;;;;;;;;5016084;28;20217;-72
2021/10/06 07:24:48;;;;;;;4.03;1.30;;;;;;;;;;5016163;28;20186;-72
2021/10/06 07:27:52;;;;;;;2.30;1.00;;;;;;;;;;5004272;28;20182;-72
2021/10/06 07:30:56;;;;;;;2.80;1.20;;;;;;;;;;5016047;28;20220;-72
2021/10/06 07:34:01;;;;;;;2.80;1.03;;;;;;;;;;5015777;28;20201;-72
2021/10/06 07:37:05;;;;;;;5.50;2.00;;;;;;;;;;5004090;28;20186;-71
2021/10/06 07:40:10;;;;;;;3.57;1.30;;;;;;;;;;5016131;28;20185;-72
2021/10/06 07:43:14;;;;;;;3.80;1.60;;;;;;;;;;5003795;28;20170;-72
2021/10/06 07:46:19;;;;;;;2.13;1.30;;;;;;;;;;5003848;28;20177;-72
2021/10/06 07:49:23;;;;;;;4.97;2.50;;;;;;;;;;5015696;28;20659;-72
2021/10/06 07:52:27;;;;;;;14.13;8.13;;;;;;;;;;5015737;28;20216;-72
2021/10/06 07:55:31;;;;;;;20.63;10.70;;;;;;;;;;5015826;28;20177;-72
2021/10/06 07:58:35;;;;;;;51.90;25.10;;;;;;;;;;5015793;28;20191;-72
2021/10/06 08:01:40;;;;;;;28.00;16.60;;;;;;;;;;5015115;28;20224;-71
2021/10/06 08:04:44;;;;;;;9.63;5.63;;;;;;;;;;5015369;28;20178;-71
2021/10/06 08:07:48;;;;;;;4.10;3.03;;;;;;;;;;5015332;28;20177;-71
2021/10/06 08:10:56;;;;;;;6.10;2.50;;;;;;;;;;5003182;28;20577;-71
2021/10/06 08:14:02;;;;;;;6.23;3.90;;;;;;;;;;5014906;28;20221;-71
2021/10/06 08:17:06;;;;;;;7.43;3.50;;;;;;;;;;5015139;28;20186;-71
2021/10/06 08:20:10;;;;;;;5.97;3.50;;;;;;;;;;5015075;28;20632;-71
2021/10/06 08:23:17;;;;;;;8.30;4.80;;;;;;;;;;5015078;28;20178;-71
2021/10/06 08:26:22;;;;;;;4.67;3.43;;;;;;;;;;5015242;28;20178;-71
2021/10/06 08:29:27;;;;;;;4.03;3.40;;;;;;;;;;5014907;28;20174;-71
2021/10/06 08:32:33;;;;;;;4.30;3.10;;;;;;;;;;5014842;28;20221;-71
2021/10/06 08:35:37;;;;;;;4.93;2.50;;;;;;;;;;5015074;28;20178;-72
2021/10/06 08:38:42;;;;;;;3.37;1.67;;;;;;;;;;5014786;28;20518;-71
2021/10/06 08:41:46;;;;;;;2.93;1.27;;;;;;;;;;5014914;28;20225;-71
2021/10/06 08:44:51;;;;;;;2.90;1.40;;;;;;;;;;5014100;28;20199;-71
2021/10/06 08:47:57;;;;;;;5.17;1.40;;;;;;;;;;5014831;28;20197;-71
2021/10/06 08:51:01;;;;;;;2.40;1.10;;;;;;;;;;5002410;28;20225;-71
2021/10/06 08:54:06;;;;;;;1.50;1.20;;;;;;;;;;5014908;28;20205;-71
2021/10/06 08:57:16;;;;;;;3.20;1.40;;;;;;;;;;5014460;28;20173;-72
2021/10/06 09:00:20;;;;;;;1.10;0.80;;;;;;;;;;5014702;28;20189;-72
2021/10/06 09:03:25;;;;;;;2.20;0.60;;;;;;;;;;5014293;28;20219;-72
2021/10/06 09:06:41;;;;;;;1.23;0.70;;;;;;;;;;5014540;28;20205;-72
2021/10/06 09:09:47;;;;;;;4.77;1.00;;;;;;;;;;5014529;28;20182;-71
2021/10/06 09:12:57;;;;;;;5.87;1.00;;;;;;;;;;5028870;22;20205;-85
2021/10/06 09:16:01;;;;;;;2.40;1.10;;;;;;;;;;4963400;28;20214;-86
2021/10/06 09:19:07;;;;;;;2.50;0.67;;;;;;;;;;4963963;28;20514;-86
2021/10/06 09:22:13;;;;;;;4.47;1.10;;;;;;;;;;4974964;28;20182;-86
2021/10/06 09:25:17;;;;;;;1.73;0.90;;;;;;;;;;4955587;29;20175;-86
2021/10/06 09:28:26;;;;;;;3.13;0.80;;;;;;;;;;4933730;29;20187;-86
2021/10/06 09:31:30;;;;;;;1.57;0.73;;;;;;;;;;4944516;29;20200;-86
2021/10/06 09:34:34;;;;;;;2.37;1.10;;;;;;;;;;4933363;29;20576;-86
2021/10/06 09:37:43;;;;;;;2.50;1.13;;;;;;;;;;4933502;29;20187;-86
2021/10/06 09:40:47;;;;;;;2.20;0.83;;;;;;;;;;4944362;29;20528;-86
2021/10/06 09:44:10;;;;;;;2.03;1.00;;;;;;;;;;4922871;29;20693;-86
2021/10/06 09:47:14;;;;;;;4.70;1.40;;;;;;;;;;4944232;29;20188;-86
2021/10/06 09:50:22;;;;;;;2.53;1.03;;;;;;;;;;4944185;29;20650;-86
2021/10/06 09:53:26;;;;;;;4.43;1.60;;;;;;;;;;4922194;28;20294;-86
2021/10/06 09:56:38;;;;;;;2.63;0.80;;;;;;;;;;4944235;29;20579;-86
2021/10/06 09:59:42;;;;;;;3.37;1.00;;;;;;;;;;4944203;29;20188;-86
2021/10/06 10:02:47;;;;;;;3.03;0.93;;;;;;;;;;4922258;28;20184;-86
2021/10/06 10:05:51;;;;;;;3.50;0.80;;;;;;;;;;4944199;29;20175;-86
2021/10/06 10:08:55;;;;;;;2.27;0.77;;;;;;;;;;4954976;29;20516;-86
2021/10/06 10:11:59;;;;;;;2.30;0.83;;;;;;;;;;4943881;29;20187;-86
2021/10/06 10:15:04;;;;;;;3.60;0.83;;;;;;;;;;4932465;29;20231;-86
2021/10/06 10:18:10;;;;;;;4.10;1.30;;;;;;;;;;4955105;29;20191;-87
2021/10/06 10:21:15;;;;;;;3.00;1.30;;;;;;;;;;4944033;29;20183;-86
2021/10/06 10:24:25;;;;;;;3.70;1.20;;;;;;;;;;4924665;29;20215;-86
2021/10/06 10:27:29;;;;;;;1.87;0.67;;;;;;;;;;4926103;29;20195;-86
2021/10/06 10:30:37;;;;;;;3.03;1.00;;;;;;;;;;4947742;29;20187;-86
2021/10/06 10:33:47;;;;;;;1.33;0.60;;;;;;;;;;4947595;28;20262;-86
2021/10/06 10:36:51;;;;;;;2.27;0.60;;;;;;;;;;4936959;29;20532;-86
2021/10/06 10:39:55;;;;;;;3.13;0.60;;;;;;;;;;4936831;29;20651;-86
2021/10/06 10:43:14;;;;;;;2.70;1.47;;;;;;;;;;4936689;28;20192;-86
2021/10/06 10:46:18;;;;;;;1.97;0.67;;;;;;;;;;4925771;29;20188;-86
2021/10/06 10:49:22;;;;;;;1.60;0.60;;;;;;;;;;4958473;29;20187;-87
2021/10/06 10:52:47;;;;;;;3.43;0.73;;;;;;;;;;4925492;29;20183;-86
2021/10/06 10:55:58;;;;;;;3.47;0.93;;;;;;;;;;4936733;29;20663;-86
2021/10/06 10:59:08;;;;;;;3.47;0.70;;;;;;;;;;4936173;29;20520;-86
2021/10/06 11:02:23;;;;;;;1.23;0.93;;;;;;;;;;4947407;29;20184;-86
2021/10/06 11:05:47;;;;;;;2.47;0.63;;;;;;;;;;4936916;29;20184;-86
2021/10/06 11:08:51;;;;;;;3.43;1.00;;;;;;;;;;4947329;29;20187;-86
2021/10/06 11:12:18;;;;;;;4.30;0.67;;;;;;;;;;4926064;29;20191;-86
2021/10/06 11:15:25;;;;;;;2.60;0.50;;;;;;;;;;4958283;29;20670;-86
2021/10/06 11:18:45;;;;;;;1.63;0.50;;;;;;;;;;4925738;29;20183;-86
2021/10/06 11:21:50;;;;;;;3.40;0.90;;;;;;;;;;4925732;29;20191;-86
2021/10/06 11:25:00;;;;;;;1.87;0.73;;;;;;;;;;4937069;29;20539;-86
2021/10/06 11:28:05;;;;;;;3.90;0.70;;;;;;;;;;4947434;29;20199;-86
2021/10/06 11:31:10;;;;;;;2.93;0.80;;;;;;;;;;4947150;29;20187;-85
2021/10/06 11:34:17;;;;;;;1.93;0.60;;;;;;;;;;4936119;29;20231;-86
2021/10/06 11:37:29;;;;;;;3.47;0.70;;;;;;;;;;4925173;29;20199;-86
2021/10/06 11:40:36;;;;;;;5.33;0.80;;;;;;;;;;4925393;29;20188;-86
2021/10/06 11:43:49;;;;;;;4.60;0.67;;;;;;;;;;4957900;28;20551;-85
2021/10/06 11:47:05;;;;;;;3.47;1.07;;;;;;;;;;4936026;29;20179;-86
2021/10/06 11:50:10;;;;;;;1.73;0.60;;;;;;;;;;4935605;29;20187;-86
2021/10/06 11:53:13;;;;;;;2.70;0.70;;;;;;;;;;4934966;28;20227;-86
2021/10/06 11:56:29;;;;;;;3.50;0.70;;;;;;;;;;4935755;29;20195;-86
2021/10/06 11:59:34;;;;;;;2.03;0.90;;;;;;;;;;4924650;29;20196;-86
2021/10/06 12:02:38;;;;;;;2.60;0.90;;;;;;;;;;4935405;29;20188;-86
2021/10/06 12:05:46;;;;;;;3.03;0.77;;;;;;;;;;4946446;29;20179;-86
2021/10/06 12:08:50;;;;;;;0.93;0.60;;;;;;;;;;4935025;29;20192;-86
2021/10/06 12:11:55;;;;;;;4.00;0.93;;;;;;;;;;4945861;29;20203;-86
2021/10/06 12:15:00;;;;;;;3.17;1.10;;;;;;;;;;4945479;29;20227;-86
2021/10/06 12:18:09;;;;;;;4.00;0.77;;;;;;;;;;4934811;29;20188;-86
2021/10/06 12:21:19;;;;;;;1.37;0.70;;;;;;;;;;4937343;29;20540;-86
2021/10/06 12:24:25;;;;;;;1.80;0.80;;;;;;;;;;4915564;29;20228;-86
2021/10/06 12:27:38;;;;;;;1.10;0.50;;;;;;;;;;4953836;29;20199;-86
2021/10/06 12:30:42;;;;;;;2.33;0.70;;;;;;;;;;4923781;29;20191;-86
2021/10/06 12:33:46;;;;;;;1.37;0.63;;;;;;;;;;4933975;29;20227;-85
2021/10/06 12:36:54;;;;;;;3.20;0.73;;;;;;;;;;4947581;29;20195;-85
2021/10/06 12:39:59;;;;;;;6.30;0.77;;;;;;;;;;4904750;29;20668;-86
2021/10/06 12:43:06;;;;;;;1.27;0.50;;;;;;;;;;4926343;29;20223;-86
2021/10/06 12:46:16;;;;;;;2.37;0.50;;;;;;;;;;4925938;29;20544;-85
2021/10/06 12:49:22;;;;;;;1.63;0.40;;;;;;;;;;4937177;29;20180;-85
2021/10/06 12:52:28;;;;;;;1.13;0.50;;;;;;;;;;4926231;29;20188;-85
2021/10/06 12:55:33;;;;;;;0.80;0.40;;;;;;;;;;4936725;29;20216;-85
2021/10/06 12:58:57;;;;;;;1.70;0.57;;;;;;;;;;4915291;29;20185;-85
2021/10/06 13:02:05;;;;;;;4.03;0.60;;;;;;;;;;4904190;29;20192;-85
2021/10/06 13:05:09;;;;;;;1.77;0.50;;;;;;;;;;4936894;29;20189;-85
2021/10/06 13:08:17;;;;;;;1.17;0.60;;;;;;;;;;4925966;29;20509;-85
2021/10/06 13:11:22;;;;;;;2.30;0.60;;;;;;;;;;4926084;29;20512;-85
2021/10/06 13:14:26;;;;;;;1.63;0.50;;;;;;;;;;4918606;29;20587;-85
2021/10/06 13:17:30;;;;;;;3.50;0.90;;;;;;;;;;4955813;29;20184;-85
2021/10/06 13:20:36;;;;;;;1.80;0.80;;;;;;;;;;4944828;29;20175;-85
2021/10/06 13:23:40;;;;;;;4.33;0.67;;;;;;;;;;4944454;28;20219;-85
2021/10/06 13:26:46;;;;;;;2.47;0.80;;;;;;;;;;4934267;29;20180;-85
2021/10/06 13:29:51;;;;;;;10.57;5.87;;;;;;;;;;4944365;29;20187;-85
2021/10/06 13:32:55;;;;;;;2.97;1.47;;;;;;;;;;4944750;28;20183;-85
2021/10/06 13:36:00;;;;;;;2.00;1.00;;;;;;;;;;4933286;29;20544;-85
2021/10/06 13:39:06;;;;;;;4.67;1.30;;;;;;;;;;4944319;29;20229;-85
2021/10/06 13:42:13;;;;;;;1.73;0.80;;;;;;;;;;4925145;29;20564;-85
2021/10/06 13:45:18;;;;;;;3.17;0.83;;;;;;;;;;4914547;29;20196;-85
2021/10/06 13:48:22;;;;;;;3.37;0.93;;;;;;;;;;4903510;29;20184;-85
2021/10/06 13:51:29;;;;;;;2.37;0.80;;;;;;;;;;4936189;29;20181;-85
2021/10/06 13:54:34;;;;;;;2.33;0.60;;;;;;;;;;4934427;29;20224;-86
2021/10/06 13:57:39;;;;;;;1.63;0.60;;;;;;;;;;4944058;29;20187;-85
2021/10/06 14:00:44;;;;;;;4.87;0.67;;;;;;;;;;4931022;29;20199;-85
2021/10/06 14:03:48;;;;;;;2.63;0.63;;;;;;;;;;4931944;29;20218;-84
2021/10/06 14:06:52;;;;;;;1.10;0.67;;;;;;;;;;4932073;29;20191;-85
2021/10/06 14:09:56;;;;;;;2.67;0.83;;;;;;;;;;4942609;29;20501;-86
2021/10/06 14:13:01;;;;;;;1.13;0.60;;;;;;;;;;4932849;28;20721;-84
2021/10/06 14:16:06;;;;;;;2.00;0.60;;;;;;;;;;4943840;29;20215;-85
2021/10/06 14:19:10;;;;;;;2.23;0.63;;;;;;;;;;4922530;29;20179;-85
2021/10/06 14:22:15;;;;;;;2.40;0.60;;;;;;;;;;4954883;29;20188;-85
2021/10/06 14:25:19;;;;;;;7.70;0.87;;;;;;;;;;4933368;29;20175;-85
2021/10/06 14:28:24;;;;;;;1.57;0.60;;;;;;;;;;4933078;29;20183;-85
2021/10/06 14:31:29;;;;;;;1.70;0.70;;;;;;;;;;4922258;29;20187;-85
2021/10/06 14:34:33;;;;;;;2.77;0.70;;;;;;;;;;4954368;28;20227;-85
2021/10/06 14:37:38;;;;;;;2.27;0.70;;;;;;;;;;4921647;29;20671;-85
2021/10/06 14:40:42;;;;;;;0.80;0.60;;;;;;;;;;4933021;29;20187;-85
2021/10/06 14:43:46;;;;;;;1.13;0.53;;;;;;;;;;4954790;28;20231;-85
2021/10/06 14:46:51;;;;;;;2.37;0.67;;;;;;;;;;4932951;29;20180;-85
2021/10/06 14:49:55;;;;;;;3.63;0.53;;;;;;;;;;4943854;29;20199;-85
2021/10/06 14:53:00;;;;;;;1.90;0.70;;;;;;;;;;4943652;28;20199;-85
2021/10/06 14:56:05;;;;;;;1.97;0.70;;;;;;;;;;4932523;29;20231;-85
2021/10/06 14:59:09;;;;;;;2.13;0.90;;;;;;;;;;4954661;29;20184;-85
2021/10/06 15:02:13;;;;;;;3.07;1.03;;;;;;;;;;4943587;29;20183;-85
2021/10/06 15:05:17;;;;;;;2.23;0.90;;;;;;;;;;4943785;29;20188;-85
2021/10/06 15:08:21;;;;;;;5.57;0.80;;;;;;;;;;4922010;29;20184;-85
2021/10/06 15:11:25;;;;;;;8.43;1.20;;;;;;;;;;4934960;29;20206;-85
2021/10/06 15:14:29;;;;;;;5.77;1.13;;;;;;;;;;4937658;29;20235;-86
2021/10/06 15:17:33;;;;;;;2.40;0.70;;;;;;;;;;4947605;29;20191;-85
2021/10/06 15:20:38;;;;;;;3.53;1.03;;;;;;;;;;4947821;29;20646;-85
2021/10/06 15:23:42;;;;;;;3.10;0.80;;;;;;;;;;4925813;28;20222;-85
2021/10/06 15:26:47;;;;;;;2.73;0.60;;;;;;;;;;4948886;29;20175;-85
2021/10/06 15:29:51;;;;;;;2.00;0.70;;;;;;;;;;4948505;29;20188;-85
2021/10/06 15:32:56;;;;;;;4.97;1.10;;;;;;;;;;4959710;28;20191;-85
2021/10/06 15:36:00;;;;;;;3.53;2.50;;;;;;;;;;4937382;29;20211;-85
2021/10/06 15:39:05;;;;;;;3.23;1.00;;;;;;;;;;4937999;29;20183;-88
2021/10/06 15:42:10;;;;;;;4.07;0.90;;;;;;;;;;4946171;29;20667;-85
2021/10/06 15:45:16;;;;;;;2.90;0.77;;;;;;;;;;4923006;29;20184;-85
2021/10/06 15:48:20;;;;;;;3.60;1.20;;;;;;;;;;4923063;29;20175;-85
2021/10/06 15:51:24;;;;;;;4.00;2.50;;;;;;;;;;4943901;29;20195;-85
2021/10/06 15:54:29;;;;;;;10.43;2.80;;;;;;;;;;4943760;29;20215;-85
2021/10/06 15:57:33;;;;;;;6.83;2.50;;;;;;;;;;4944412;29;20183;-85
2021/10/06 16:00:41;;;;;;;2.40;1.30;;;;;;;;;;4943551;29;20207;-85
2021/10/06 16:03:45;;;;;;;5.33;1.60;;;;;;;;;;4935070;29;20212;-85
2021/10/06 16:06:49;;;;;;;5.67;1.30;;;;;;;;;;4944403;29;20172;-85
2021/10/06 16:09:53;;;;;;;5.80;1.60;;;;;;;;;;4936051;29;20540;-84
2021/10/06 16:12:58;;;;;;;5.63;0.83;;;;;;;;;;4935919;29;20648;-85
2021/10/06 16:16:02;;;;;;;2.47;0.87;;;;;;;;;;4913760;29;20215;-86
2021/10/06 16:19:06;;;;;;;3.00;0.80;;;;;;;;;;4932355;29;20202;-85
2021/10/06 16:22:10;;;;;;;3.00;0.93;;;;;;;;;;4917725;29;20540;-86
2021/10/06 16:25:14;;;;;;;3.77;0.83;;;;;;;;;;4936860;29;20195;-86
2021/10/06 16:28:19;;;;;;;4.50;1.00;;;;;;;;;;4919997;29;20191;-86
2021/10/06 16:31:23;;;;;;;8.03;1.20;;;;;;;;;;4922145;29;20195;-86
2021/10/06 16:34:27;;;;;;;2.97;1.00;;;;;;;;;;4952912;28;20230;-86
2021/10/06 16:37:31;;;;;;;9.60;1.10;;;;;;;;;;4920132;29;20211;-86
2021/10/06 16:40:36;;;;;;;1.83;1.00;;;;;;;;;;4933142;29;20183;-86
2021/10/06 16:43:42;;;;;;;2.17;1.00;;;;;;;;;;4920868;29;20690;-85
2021/10/06 16:46:49;;;;;;;1.40;0.70;;;;;;;;;;4920419;29;20626;-86
2021/10/06 16:49:53;;;;;;;2.63;0.90;;;;;;;;;;4942136;29;20188;-84
2021/10/06 16:52:57;;;;;;;3.00;0.90;;;;;;;;;;4941762;29;20192;-86
2021/10/06 16:56:02;;;;;;;2.27;0.97;;;;;;;;;;4930726;29;20207;-87
2021/10/06 16:59:06;;;;;;;2.13;0.93;;;;;;;;;;4917961;29;20200;-86
2021/10/06 17:02:11;;;;;;;2.40;1.13;;;;;;;;;;4934028;29;20192;-86
2021/10/06 17:05:15;;;;;;;2.37;1.00;;;;;;;;;;4941694;29;20195;-85
2021/10/06 17:08:20;;;;;;;2.80;1.17;;;;;;;;;;4945000;29;20195;-85
2021/10/06 17:11:24;;;;;;;3.27;1.20;;;;;;;;;;4927837;29;20195;-88
2021/10/06 17:14:28;;;;;;;2.77;1.17;;;;;;;;;;4932543;29;20226;-86
2021/10/06 17:17:33;;;;;;;1.93;1.13;;;;;;;;;;4922600;29;20216;-85
2021/10/06 17:20:38;;;;;;;3.50;1.20;;;;;;;;;;4924312;29;20195;-89
2021/10/06 17:23:42;;;;;;;3.50;1.50;;;;;;;;;;4946463;28;20223;-86
2021/10/06 17:26:46;;;;;;;3.93;1.17;;;;;;;;;;4937393;29;20199;-87
2021/10/06 17:29:50;;;;;;;3.83;1.33;;;;;;;;;;4925421;29;20187;-85
2021/10/06 17:32:55;;;;;;;6.37;2.10;;;;;;;;;;4924369;28;20544;-86
2021/10/06 17:36:00;;;;;;;2.30;1.10;;;;;;;;;;4935965;29;20729;-84
2021/10/06 17:39:06;;;;;;;2.30;1.00;;;;;;;;;;4947255;29;20199;-86
2021/10/06 17:42:11;;;;;;;2.73;0.90;;;;;;;;;;4946736;29;20183;-86
2021/10/06 17:45:18;;;;;;;3.57;1.20;;;;;;;;;;4936316;29;20200;-86
2021/10/06 17:48:22;;;;;;;2.90;1.40;;;;;;;;;;4946823;29;20191;-86
2021/10/06 17:51:26;;;;;;;6.57;1.70;;;;;;;;;;4937357;29;20195;-86
2021/10/06 17:54:30;;;;;;;3.60;1.20;;;;;;;;;;4947310;29;20223;-85
2021/10/06 17:57:34;;;;;;;1.80;1.30;;;;;;;;;;4925193;29;20211;-86
2021/10/06 18:00:39;;;;;;;3.10;1.23;;;;;;;;;;4927417;29;20199;-86
2021/10/06 18:03:43;;;;;;;3.23;1.10;;;;;;;;;;4936768;29;20223;-87
2021/10/06 18:06:48;;;;;;;4.63;1.67;;;;;;;;;;4947035;29;20187;-88
2021/10/06 18:09:52;;;;;;;1.37;0.83;;;;;;;;;;4935402;29;20195;-88
2021/10/06 18:12:57;;;;;;;2.93;1.20;;;;;;;;;;4946359;28;20187;-87
2021/10/06 18:16:02;;;;;;;5.33;1.40;;;;;;;;;;4926348;29;20200;-86
2021/10/06 18:19:07;;;;;;;6.50;1.27;;;;;;;;;;4925093;29;20191;-86
2021/10/06 18:22:12;;;;;;;3.50;1.10;;;;;;;;;;4935012;29;20187;-85
2021/10/06 18:25:17;;;;;;;3.63;1.10;;;;;;;;;;4916946;29;20192;-86
2021/10/06 18:28:22;;;;;;;5.13;1.30;;;;;;;;;;4949570;29;20192;-89
2021/10/06 18:31:30;;;;;;;3.77;1.20;;;;;;;;;;4944447;29;20210;-86